createdAt,value
2016-04-13T00:00:07.250Z,996.2
2016-04-13T00:01:07.285Z,996.23
2016-04-13T00:02:07.303Z,996.2
2016-04-13T00:03:07.321Z,996.19
2016-04-13T00:04:07.355Z,996.13
2016-04-13T00:05:07.374Z,996.13
2016-04-13T00:06:07.423Z,996.13
2016-04-13T00:07:07.410Z,996.15
2016-04-13T00:08:07.433Z,996.07
2016-04-13T00:09:07.467Z,996.09
2016-04-13T00:10:07.485Z,996.11
2016-04-13T00:11:07.503Z,996.14
2016-04-13T00:12:07.522Z,996.14
2016-04-13T00:13:07.556Z,996.18
2016-04-13T00:14:07.574Z,996.18
2016-04-13T00:15:07.592Z,996.16
2016-04-13T00:16:07.626Z,996.17
2016-04-13T00:17:07.660Z,996.21
2016-04-13T00:18:07.663Z,996.22
2016-04-13T00:19:07.681Z,996.23
2016-04-13T00:20:07.715Z,996.24
2016-04-13T00:21:07.734Z,996.21
2016-04-13T00:22:07.753Z,996.2
2016-04-13T00:23:07.785Z,996.19
2016-04-13T00:24:07.805Z,996.12
2016-04-13T00:25:07.838Z,996.14
2016-04-13T00:26:07.841Z,996.13
2016-04-13T00:27:07.875Z,996.1
2016-04-13T00:28:07.893Z,996.1
2016-04-13T00:29:07.911Z,996.08
2016-04-13T00:30:07.930Z,996.12
2016-04-13T00:31:07.963Z,996.09
2016-04-13T00:32:07.982Z,996.14
2016-04-13T00:33:08.001Z,996.15
2016-04-13T00:34:08.034Z,996.13
2016-04-13T00:35:08.052Z,996.08
2016-04-13T00:36:08.071Z,996.09
2016-04-13T00:37:08.089Z,996.1
2016-04-13T00:38:08.123Z,996.09
2016-04-13T00:39:08.141Z,996.11
2016-04-13T00:40:08.159Z,996.13
2016-04-13T00:41:08.179Z,996.15
2016-04-13T00:42:08.212Z,996.11
2016-04-13T00:43:08.231Z,996.11
2016-04-13T00:44:08.248Z,996.09
2016-04-13T00:45:08.267Z,996.08
2016-04-13T00:46:08.301Z,996.05
2016-04-13T00:47:08.320Z,996.04
2016-04-13T00:48:08.337Z,996.01
2016-04-13T00:49:08.372Z,996.01
2016-04-13T00:50:08.390Z,995.98
2016-04-13T00:51:08.439Z,995.96
2016-04-13T00:52:08.426Z,996.01
2016-04-13T00:53:08.460Z,996
2016-04-13T00:54:08.478Z,996.04
2016-04-13T00:55:08.497Z,996.02
2016-04-13T00:56:08.546Z,995.97
2016-04-13T00:57:08.549Z,995.96
2016-04-13T00:58:08.568Z,995.91
2016-04-13T00:59:08.585Z,995.93
2016-04-13T01:00:08.604Z,995.87
2016-04-13T01:01:08.638Z,995.85
2016-04-13T01:02:08.656Z,995.84
2016-04-13T01:03:08.674Z,995.84
2016-04-13T01:04:08.709Z,995.86
2016-04-13T01:05:08.726Z,995.82
2016-04-13T01:06:08.885Z,995.83
2016-04-13T01:07:08.763Z,995.83
2016-04-13T01:08:08.782Z,995.79
2016-04-13T01:09:08.816Z,995.79
2016-04-13T01:10:08.835Z,995.81
2016-04-13T01:11:08.853Z,995.82
2016-04-13T01:12:08.886Z,995.79
2016-04-13T01:13:08.894Z,995.79
2016-04-13T01:14:08.927Z,995.81
2016-04-13T01:15:08.945Z,995.83
2016-04-13T01:16:08.963Z,995.81
2016-04-13T01:17:08.982Z,995.77
2016-04-13T01:18:09.015Z,995.78
2016-04-13T01:19:09.034Z,995.74
2016-04-13T01:20:09.068Z,995.7
2016-04-13T01:21:09.118Z,995.68
2016-04-13T01:22:09.109Z,995.65
2016-04-13T01:23:09.127Z,995.62
2016-04-13T01:24:09.145Z,995.59
2016-04-13T01:25:09.164Z,995.54
2016-04-13T01:26:09.197Z,995.55
2016-04-13T01:27:09.216Z,995.53
2016-04-13T01:28:09.234Z,995.49
2016-04-13T01:29:09.252Z,995.48
2016-04-13T01:30:09.286Z,995.45
2016-04-13T01:31:09.305Z,995.48
2016-04-13T01:32:09.338Z,995.48
2016-04-13T01:33:09.341Z,995.47
2016-04-13T01:34:09.360Z,995.53
2016-04-13T01:35:09.393Z,995.53
2016-04-13T01:36:09.427Z,995.5
2016-04-13T01:37:09.429Z,995.47
2016-04-13T01:38:09.448Z,995.45
2016-04-13T01:39:09.482Z,995.42
2016-04-13T01:40:09.501Z,995.42
2016-04-13T01:41:09.519Z,995.45
2016-04-13T01:42:09.537Z,995.47
2016-04-13T01:43:09.571Z,995.51
2016-04-13T01:44:09.590Z,995.5
2016-04-13T01:45:09.609Z,995.48
2016-04-13T01:46:09.642Z,995.46
2016-04-13T01:47:09.645Z,995.47
2016-04-13T01:48:09.679Z,995.45
2016-04-13T01:49:09.697Z,995.48
2016-04-13T01:50:09.715Z,995.53
2016-04-13T01:51:09.780Z,995.52
2016-04-13T01:52:09.767Z,995.52
2016-04-13T01:53:09.786Z,995.5
2016-04-13T01:54:09.803Z,995.48
2016-04-13T01:55:09.833Z,995.5
2016-04-13T01:56:09.909Z,995.5
2016-04-13T01:57:09.971Z,995.52
2016-04-13T01:58:10.034Z,995.52
2016-04-13T01:59:10.093Z,995.51
2016-04-13T02:00:10.149Z,995.48
2016-04-13T02:01:10.197Z,995.46
2016-04-13T02:02:10.232Z,995.46
2016-04-13T02:03:10.281Z,995.42
2016-04-13T02:04:10.298Z,995.38
2016-04-13T02:05:10.345Z,995.4
2016-04-13T02:06:10.385Z,995.38
2016-04-13T02:07:10.392Z,995.38
2016-04-13T02:08:10.417Z,995.36
2016-04-13T02:09:10.456Z,995.36
2016-04-13T02:10:10.478Z,995.37
2016-04-13T02:11:10.499Z,995.38
2016-04-13T02:12:10.535Z,995.37
2016-04-13T02:13:10.539Z,995.41
2016-04-13T02:14:10.607Z,995.44
2016-04-13T02:15:10.595Z,995.44
2016-04-13T02:16:10.614Z,995.44
2016-04-13T02:17:10.634Z,995.46
2016-04-13T02:18:10.668Z,995.47
2016-04-13T02:19:10.687Z,995.45
2016-04-13T02:20:10.705Z,995.45
2016-04-13T02:21:10.756Z,995.44
2016-04-13T02:22:10.744Z,995.5
2016-04-13T02:23:10.778Z,995.54
2016-04-13T02:24:10.797Z,995.56
2016-04-13T02:25:10.815Z,995.6
2016-04-13T02:26:10.849Z,995.6
2016-04-13T02:27:10.867Z,995.57
2016-04-13T02:28:10.886Z,995.58
2016-04-13T02:29:10.904Z,995.6
2016-04-13T02:30:10.923Z,995.56
2016-04-13T02:31:10.957Z,995.56
2016-04-13T02:32:10.975Z,995.51
2016-04-13T02:33:10.993Z,995.54
2016-04-13T02:34:11.012Z,995.52
2016-04-13T02:35:11.030Z,995.6
2016-04-13T02:36:11.080Z,995.62
2016-04-13T02:37:11.083Z,995.6
2016-04-13T02:38:11.100Z,995.59
2016-04-13T02:39:11.119Z,995.54
2016-04-13T02:40:11.153Z,995.51
2016-04-13T02:41:11.171Z,995.52
2016-04-13T02:42:11.189Z,995.51
2016-04-13T02:43:11.208Z,995.56
2016-04-13T02:44:11.226Z,995.65
2016-04-13T02:45:11.243Z,995.7
2016-04-13T02:46:11.277Z,995.7
2016-04-13T02:47:11.297Z,995.73
2016-04-13T02:48:11.315Z,995.72
2016-04-13T02:49:11.333Z,995.74
2016-04-13T02:50:11.367Z,995.71
2016-04-13T02:51:11.432Z,995.69
2016-04-13T02:52:11.404Z,995.7
2016-04-13T02:53:11.421Z,995.7
2016-04-13T02:54:11.440Z,995.63
2016-04-13T02:55:11.473Z,995.62
2016-04-13T02:56:11.492Z,995.65
2016-04-13T02:57:11.511Z,995.65
2016-04-13T02:58:11.528Z,995.64
2016-04-13T02:59:11.547Z,995.61
2016-04-13T03:00:11.581Z,995.58
2016-04-13T03:01:11.615Z,995.56
2016-04-13T03:02:11.618Z,995.55
2016-04-13T03:03:11.636Z,995.55
2016-04-13T03:04:11.670Z,995.6
2016-04-13T03:05:11.689Z,995.57
2016-04-13T03:06:11.786Z,995.6
2016-04-13T03:07:11.725Z,995.62
2016-04-13T03:08:11.744Z,995.61
2016-04-13T03:09:11.777Z,995.63
2016-04-13T03:10:11.796Z,995.59
2016-04-13T03:11:11.814Z,995.63
2016-04-13T03:12:11.832Z,995.62
2016-04-13T03:13:11.850Z,995.6
2016-04-13T03:14:11.884Z,995.58
2016-04-13T03:15:11.903Z,995.6
2016-04-13T03:16:11.922Z,995.6
2016-04-13T03:17:11.940Z,995.6
2016-04-13T03:18:11.958Z,995.54
2016-04-13T03:19:11.991Z,995.51
2016-04-13T03:20:12.010Z,995.59
2016-04-13T03:21:12.044Z,995.61
2016-04-13T03:22:12.047Z,995.61
2016-04-13T03:23:12.065Z,995.64
2016-04-13T03:24:12.098Z,995.64
2016-04-13T03:25:12.117Z,995.67
2016-04-13T03:26:12.135Z,995.62
2016-04-13T03:27:12.153Z,995.65
2016-04-13T03:28:12.172Z,995.65
2016-04-13T03:29:12.206Z,995.63
2016-04-13T03:30:12.225Z,995.62
2016-04-13T03:31:12.243Z,995.65
2016-04-13T03:32:12.261Z,995.64
2016-04-13T03:33:12.279Z,995.59
2016-04-13T03:34:12.314Z,995.57
2016-04-13T03:35:12.331Z,995.52
2016-04-13T03:36:12.350Z,995.56
2016-04-13T03:37:12.369Z,995.54
2016-04-13T03:38:12.386Z,995.59
2016-04-13T03:39:12.420Z,995.59
2016-04-13T03:40:12.444Z,995.59
2016-04-13T03:41:12.462Z,995.56
2016-04-13T03:42:12.480Z,995.54
2016-04-13T03:43:12.498Z,995.58
2016-04-13T03:44:12.517Z,995.54
2016-04-13T03:45:12.535Z,995.52
2016-04-13T03:46:12.569Z,995.51
2016-04-13T03:47:12.587Z,995.5
2016-04-13T03:48:12.606Z,995.45
2016-04-13T03:49:12.624Z,995.43
2016-04-13T03:50:12.642Z,995.45
2016-04-13T03:51:12.676Z,995.43
2016-04-13T03:52:12.695Z,995.38
2016-04-13T03:53:12.712Z,995.33
2016-04-13T03:54:12.731Z,995.28
2016-04-13T03:55:12.750Z,995.23
2016-04-13T03:56:12.784Z,995.15
2016-04-13T03:57:12.801Z,995.08
2016-04-13T03:58:12.820Z,995.02
2016-04-13T03:59:12.839Z,994.96
2016-04-13T04:00:12.873Z,994.91
2016-04-13T04:01:12.891Z,994.82
2016-04-13T04:02:12.909Z,994.8
2016-04-13T04:03:12.927Z,994.8
2016-04-13T04:04:12.945Z,994.85
2016-04-13T04:05:12.980Z,994.87
2016-04-13T04:06:12.997Z,994.9
2016-04-13T04:07:13.016Z,994.86
2016-04-13T04:08:13.035Z,994.83
2016-04-13T04:09:13.053Z,994.79
2016-04-13T04:10:13.086Z,994.78
2016-04-13T04:11:13.105Z,994.77
2016-04-13T04:12:13.124Z,994.88
2016-04-13T04:13:13.142Z,994.95
2016-04-13T04:14:13.161Z,995.08
2016-04-13T04:15:13.179Z,995.18
2016-04-13T04:16:13.213Z,995.26
2016-04-13T04:17:13.230Z,995.29
2016-04-13T04:18:13.249Z,995.29
2016-04-13T04:19:13.268Z,995.28
2016-04-13T04:20:13.285Z,995.28
2016-04-13T04:21:13.320Z,995.25
2016-04-13T04:22:13.337Z,995.27
2016-04-13T04:23:13.356Z,995.27
2016-04-13T04:24:13.374Z,995.31
2016-04-13T04:25:13.393Z,995.36
2016-04-13T04:26:13.426Z,995.34
2016-04-13T04:27:13.445Z,995.29
2016-04-13T04:28:13.464Z,995.19
2016-04-13T04:29:13.482Z,995.28
2016-04-13T04:30:13.500Z,995.33
2016-04-13T04:31:13.518Z,995.4
2016-04-13T04:32:13.553Z,995.41
2016-04-13T04:33:13.571Z,995.47
2016-04-13T04:34:13.589Z,995.44
2016-04-13T04:35:13.608Z,995.48
2016-04-13T04:36:13.625Z,995.49
2016-04-13T04:37:13.659Z,995.46
2016-04-13T04:38:13.678Z,995.52
2016-04-13T04:39:13.696Z,995.5
2016-04-13T04:40:13.714Z,995.57
2016-04-13T04:41:13.733Z,995.5
2016-04-13T04:42:13.767Z,995.51
2016-04-13T04:43:13.786Z,995.49
2016-04-13T04:44:13.803Z,995.52
2016-04-13T04:45:13.822Z,995.57
2016-04-13T04:46:13.840Z,995.56
2016-04-13T04:47:13.874Z,995.57
2016-04-13T04:48:13.892Z,995.55
2016-04-13T04:49:13.910Z,995.54
2016-04-13T04:50:13.929Z,995.55
2016-04-13T04:51:13.947Z,995.55
2016-04-13T04:52:13.981Z,995.56
2016-04-13T04:53:13.999Z,995.53
2016-04-13T04:54:14.017Z,995.54
2016-04-13T04:55:14.036Z,995.53
2016-04-13T04:56:14.054Z,995.53
2016-04-13T04:57:14.088Z,995.54
2016-04-13T04:58:14.107Z,995.52
2016-04-13T04:59:14.126Z,995.51
2016-04-13T05:00:14.143Z,995.56
2016-04-13T05:01:14.162Z,995.62
2016-04-13T05:02:14.180Z,995.61
2016-04-13T05:03:14.198Z,995.61
2016-04-13T05:04:14.232Z,995.62
2016-04-13T05:05:14.250Z,995.62
2016-04-13T05:06:14.269Z,995.63
2016-04-13T05:07:14.303Z,995.65
2016-04-13T05:08:14.321Z,995.65
2016-04-13T05:09:14.339Z,995.66
2016-04-13T05:10:14.358Z,995.65
2016-04-13T05:11:14.392Z,995.64
2016-04-13T05:12:14.394Z,995.67
2016-04-13T05:13:14.413Z,995.71
2016-04-13T05:14:14.446Z,995.7
2016-04-13T05:15:14.465Z,995.73
2016-04-13T05:16:14.482Z,995.72
2016-04-13T05:17:14.501Z,995.73
2016-04-13T05:18:14.519Z,995.74
2016-04-13T05:19:14.538Z,995.74
2016-04-13T05:20:14.572Z,995.74
2016-04-13T05:21:14.590Z,995.69
2016-04-13T05:22:14.610Z,995.7
2016-04-13T05:23:14.626Z,995.72
2016-04-13T05:24:14.645Z,995.71
2016-04-13T05:25:14.663Z,995.75
2016-04-13T05:26:14.698Z,995.77
2016-04-13T05:27:14.716Z,995.75
2016-04-13T05:28:14.734Z,995.77
2016-04-13T05:29:14.753Z,995.78
2016-04-13T05:30:14.771Z,995.76
2016-04-13T05:31:14.804Z,995.76
2016-04-13T05:32:14.823Z,995.75
2016-04-13T05:33:14.841Z,995.73
2016-04-13T05:34:14.860Z,995.7
2016-04-13T05:35:14.878Z,995.72
2016-04-13T05:36:14.912Z,995.68
2016-04-13T05:37:14.930Z,995.7
2016-04-13T05:38:14.948Z,995.69
2016-04-13T05:39:14.966Z,995.7
2016-04-13T05:40:14.986Z,995.69
2016-04-13T05:41:15.019Z,995.64
2016-04-13T05:42:15.038Z,995.67
2016-04-13T05:43:15.055Z,995.65
2016-04-13T05:44:15.074Z,995.64
2016-04-13T05:45:15.092Z,995.66
2016-04-13T05:46:15.110Z,995.64
2016-04-13T05:47:15.129Z,995.65
2016-04-13T05:48:15.163Z,995.63
2016-04-13T05:49:15.181Z,995.63
2016-04-13T05:50:15.199Z,995.59
2016-04-13T05:51:15.218Z,995.56
2016-04-13T05:52:15.235Z,995.59
2016-04-13T05:53:15.254Z,995.61
2016-04-13T05:54:15.289Z,995.57
2016-04-13T05:55:15.307Z,995.58
2016-04-13T05:56:15.325Z,995.53
2016-04-13T05:57:15.343Z,995.56
2016-04-13T05:58:15.362Z,995.56
2016-04-13T05:59:15.380Z,995.52
2016-04-13T06:00:15.414Z,995.53
2016-04-13T06:01:15.432Z,995.52
2016-04-13T06:02:15.467Z,995.5
2016-04-13T06:03:15.469Z,995.49
2016-04-13T06:04:15.503Z,995.52
2016-04-13T06:05:15.520Z,995.47
2016-04-13T06:06:15.540Z,995.49
2016-04-13T06:07:15.558Z,995.48
2016-04-13T06:08:15.576Z,995.47
2016-04-13T06:09:15.595Z,995.51
2016-04-13T06:10:15.613Z,995.47
2016-04-13T06:11:15.647Z,995.47
2016-04-13T06:12:15.665Z,995.44
2016-04-13T06:13:15.684Z,995.42
2016-04-13T06:14:15.702Z,995.43
2016-04-13T06:15:15.719Z,995.4
2016-04-13T06:16:15.738Z,995.41
2016-04-13T06:17:15.757Z,995.37
2016-04-13T06:18:15.790Z,995.36
2016-04-13T06:19:15.808Z,995.34
2016-04-13T06:20:15.827Z,995.33
2016-04-13T06:21:15.846Z,995.31
2016-04-13T06:22:15.863Z,995.3
2016-04-13T06:23:15.899Z,995.3
2016-04-13T06:24:15.916Z,995.33
2016-04-13T06:25:15.934Z,995.29
2016-04-13T06:26:15.952Z,995.31
2016-04-13T06:27:15.971Z,995.3
2016-04-13T06:28:16.005Z,995.31
2016-04-13T06:29:16.023Z,995.33
2016-04-13T06:30:16.042Z,995.33
2016-04-13T06:31:16.060Z,995.35
2016-04-13T06:32:16.078Z,995.32
2016-04-13T06:33:16.096Z,995.32
2016-04-13T06:34:16.130Z,995.31
2016-04-13T06:35:16.148Z,995.29
2016-04-13T06:36:16.167Z,995.34
2016-04-13T06:37:16.185Z,995.33
2016-04-13T06:38:16.204Z,995.35
2016-04-13T06:39:16.222Z,995.33
2016-04-13T06:40:16.255Z,995.34
2016-04-13T06:41:16.275Z,995.34
2016-04-13T06:42:16.292Z,995.37
2016-04-13T06:43:16.311Z,995.35
2016-04-13T06:44:16.329Z,995.33
2016-04-13T06:45:16.363Z,995.36
2016-04-13T06:46:16.381Z,995.38
2016-04-13T06:47:16.416Z,995.36
2016-04-13T06:48:16.418Z,995.34
2016-04-13T06:49:16.436Z,995.31
2016-04-13T06:50:16.454Z,995.33
2016-04-13T06:51:16.489Z,995.34
2016-04-13T06:52:16.507Z,995.35
2016-04-13T06:53:16.525Z,995.36
2016-04-13T06:54:16.543Z,995.35
2016-04-13T06:55:16.562Z,995.37
2016-04-13T06:56:16.596Z,995.4
2016-04-13T06:57:16.615Z,995.4
2016-04-13T06:58:16.632Z,995.44
2016-04-13T06:59:16.651Z,995.4
2016-04-13T07:00:16.669Z,995.43
2016-04-13T07:01:16.687Z,995.42
2016-04-13T07:02:16.721Z,995.39
2016-04-13T07:03:16.740Z,995.45
2016-04-13T07:04:16.758Z,995.45
2016-04-13T07:05:16.776Z,995.43
2016-04-13T07:06:16.795Z,995.45
2016-04-13T07:07:16.828Z,995.44
2016-04-13T07:08:16.847Z,995.49
2016-04-13T07:09:16.864Z,995.5
2016-04-13T07:10:16.883Z,995.49
2016-04-13T07:11:16.902Z,995.52
2016-04-13T07:12:16.919Z,995.52
2016-04-13T07:13:16.953Z,995.51
2016-04-13T07:14:16.972Z,995.48
2016-04-13T07:15:16.991Z,995.49
2016-04-13T07:16:17.009Z,995.47
2016-04-13T07:17:17.043Z,995.46
2016-04-13T07:18:17.061Z,995.48
2016-04-13T07:19:17.080Z,995.47
2016-04-13T07:20:17.097Z,995.46
2016-04-13T07:21:17.117Z,995.51
2016-04-13T07:22:17.150Z,995.49
2016-04-13T07:23:17.169Z,995.49
2016-04-13T07:24:17.188Z,995.49
2016-04-13T07:25:17.221Z,995.48
2016-04-13T07:26:17.224Z,995.52
2016-04-13T07:27:17.257Z,995.5
2016-04-13T07:28:17.276Z,995.54
2016-04-13T07:29:17.294Z,995.55
2016-04-13T07:30:17.312Z,995.53
2016-04-13T07:31:17.331Z,995.54
2016-04-13T07:32:17.364Z,995.55
2016-04-13T07:33:17.382Z,995.52
2016-04-13T07:34:17.401Z,995.51
2016-04-13T07:35:17.419Z,995.56
2016-04-13T07:36:17.454Z,995.55
2016-04-13T07:37:17.487Z,995.58
2016-04-13T07:38:17.490Z,995.56
2016-04-13T07:39:17.509Z,995.59
2016-04-13T07:40:17.526Z,995.6
2016-04-13T07:41:17.561Z,995.59
2016-04-13T07:42:17.579Z,995.56
2016-04-13T07:43:17.597Z,995.57
2016-04-13T07:44:17.616Z,995.58
2016-04-13T07:45:17.649Z,995.57
2016-04-13T07:46:17.667Z,995.54
2016-04-13T07:47:17.686Z,995.52
2016-04-13T07:48:17.704Z,995.58
2016-04-13T07:49:17.722Z,995.56
2016-04-13T07:50:17.757Z,995.62
2016-04-13T07:51:17.775Z,995.57
2016-04-13T07:52:17.794Z,995.63
2016-04-13T07:53:17.811Z,995.6
2016-04-13T07:54:17.846Z,995.62
2016-04-13T07:55:17.863Z,995.6
2016-04-13T07:56:17.882Z,995.63
2016-04-13T07:57:17.901Z,995.64
2016-04-13T07:58:17.934Z,995.61
2016-04-13T07:59:17.953Z,995.67
2016-04-13T08:00:17.971Z,995.66
2016-04-13T08:01:17.990Z,995.72
2016-04-13T08:02:18.024Z,995.74
2016-04-13T08:03:18.042Z,995.77
2016-04-13T08:04:18.060Z,995.69
2016-04-13T08:05:18.078Z,995.74
2016-04-13T08:06:18.112Z,995.7
2016-04-13T08:07:18.131Z,995.72
2016-04-13T08:08:18.153Z,995.65
2016-04-13T08:09:18.187Z,995.7
2016-04-13T08:10:18.205Z,995.67
2016-04-13T08:11:18.224Z,995.65
2016-04-13T08:12:18.242Z,995.68
2016-04-13T08:13:18.260Z,995.66
2016-04-13T08:14:18.280Z,995.67
2016-04-13T08:15:18.313Z,995.72
2016-04-13T08:16:18.363Z,995.68
2016-04-13T08:17:18.350Z,995.68
2016-04-13T08:18:18.477Z,995.72
2016-04-13T08:19:18.402Z,995.66
2016-04-13T08:20:18.421Z,995.67
2016-04-13T08:21:18.438Z,995.69
2016-04-13T08:22:18.488Z,995.61
2016-04-13T08:23:18.491Z,995.64
2016-04-13T08:24:18.510Z,995.64
2016-04-13T08:25:18.528Z,995.62
2016-04-13T08:26:18.562Z,995.65
2016-04-13T08:27:18.580Z,995.66
2016-04-13T08:28:18.598Z,995.58
2016-04-13T08:29:18.616Z,995.59
2016-04-13T08:30:18.651Z,995.63
2016-04-13T08:31:18.668Z,995.61
2016-04-13T08:32:18.687Z,995.61
2016-04-13T08:33:18.720Z,995.63
2016-04-13T08:34:18.770Z,995.61
2016-04-13T08:35:18.757Z,995.61
2016-04-13T08:36:18.775Z,995.57
2016-04-13T08:37:18.810Z,995.55
2016-04-13T08:38:18.828Z,995.54
2016-04-13T08:39:18.862Z,995.48
2016-04-13T08:40:18.880Z,995.49
2016-04-13T08:41:18.898Z,995.48
2016-04-13T08:42:18.917Z,995.51
2016-04-13T08:43:18.950Z,995.5
2016-04-13T08:44:18.969Z,995.47
2016-04-13T08:45:18.987Z,995.49
2016-04-13T08:46:19.021Z,995.45
2016-04-13T08:47:19.039Z,995.45
2016-04-13T08:48:19.058Z,995.42
2016-04-13T08:49:19.077Z,995.42
2016-04-13T08:50:19.111Z,995.48
2016-04-13T08:51:19.129Z,995.49
2016-04-13T08:52:19.257Z,995.46
2016-04-13T08:53:19.180Z,995.43
2016-04-13T08:54:19.215Z,995.47
2016-04-13T08:55:19.233Z,995.43
2016-04-13T08:56:19.252Z,995.46
2016-04-13T08:57:19.271Z,995.42
2016-04-13T08:58:19.304Z,995.39
2016-04-13T08:59:19.322Z,995.38
2016-04-13T09:00:19.340Z,995.42
2016-04-13T09:01:19.359Z,995.35
2016-04-13T09:02:19.393Z,995.34
2016-04-13T09:03:19.426Z,995.34
2016-04-13T09:04:19.445Z,995.33
2016-04-13T09:05:19.462Z,995.33
2016-04-13T09:06:19.481Z,995.37
2016-04-13T09:07:19.515Z,995.35
2016-04-13T09:08:19.534Z,995.31
2016-04-13T09:09:19.552Z,995.38
2016-04-13T09:10:19.586Z,995.4
2016-04-13T09:11:19.604Z,995.38
2016-04-13T09:12:19.622Z,995.35
2016-04-13T09:13:19.656Z,995.43
2016-04-13T09:14:19.691Z,995.42
2016-04-13T09:15:19.709Z,995.4
2016-04-13T09:16:19.727Z,995.38
2016-04-13T09:17:19.745Z,995.39
2016-04-13T09:18:19.779Z,995.45
2016-04-13T09:19:19.797Z,995.4
2016-04-13T09:20:19.816Z,995.39
2016-04-13T09:21:19.850Z,995.38
2016-04-13T09:22:19.884Z,995.39
2016-04-13T09:23:19.902Z,995.38
2016-04-13T09:24:19.921Z,995.37
2016-04-13T09:25:19.938Z,995.42
2016-04-13T09:26:19.973Z,995.42
2016-04-13T09:27:19.991Z,995.45
2016-04-13T09:28:20.025Z,995.47
2016-04-13T09:29:20.044Z,995.43
2016-04-13T09:30:20.062Z,995.4
2016-04-13T09:31:20.096Z,995.39
2016-04-13T09:32:20.114Z,995.4
2016-04-13T09:33:20.148Z,995.4
2016-04-13T09:34:20.165Z,995.41
2016-04-13T09:35:20.200Z,995.39
2016-04-13T09:36:20.218Z,995.38
2016-04-13T09:37:20.283Z,995.36
2016-04-13T09:38:20.271Z,995.36
2016-04-13T09:39:20.289Z,995.35
2016-04-13T09:40:20.323Z,995.36
2016-04-13T09:41:20.341Z,995.36
2016-04-13T09:42:20.375Z,995.37
2016-04-13T09:43:20.394Z,995.39
2016-04-13T09:44:20.427Z,995.39
2016-04-13T09:45:20.445Z,995.37
2016-04-13T09:46:20.480Z,995.33
2016-04-13T09:47:20.497Z,995.37
2016-04-13T09:48:20.532Z,995.41
2016-04-13T09:49:20.550Z,995.41
2016-04-13T09:50:20.569Z,995.42
2016-04-13T09:51:20.603Z,995.41
2016-04-13T09:52:20.621Z,995.39
2016-04-13T09:53:20.655Z,995.4
2016-04-13T09:54:20.681Z,995.39
2016-04-13T09:55:20.697Z,995.39
2016-04-13T09:56:20.720Z,995.42
2016-04-13T09:57:20.754Z,995.39
2016-04-13T09:58:20.772Z,995.39
2016-04-13T09:59:20.807Z,995.37
2016-04-13T10:00:20.833Z,995.4
2016-04-13T10:01:20.864Z,995.34
2016-04-13T10:02:20.883Z,995.34
2016-04-13T10:03:20.902Z,995.31
2016-04-13T10:04:20.927Z,995.34
2016-04-13T10:05:20.960Z,995.39
2016-04-13T10:06:20.979Z,995.36
2016-04-13T10:07:21.012Z,995.36
2016-04-13T10:08:21.047Z,995.31
2016-04-13T10:09:21.064Z,995.23
2016-04-13T10:10:21.098Z,995.25
2016-04-13T10:11:21.117Z,995.23
2016-04-13T10:12:21.136Z,995.22
2016-04-13T10:13:22.685Z,995.24
2016-04-13T10:14:23.938Z,995.26
2016-04-13T10:15:22.941Z,995.29
2016-04-13T10:16:27.411Z,995.29
2016-04-13T10:17:21.275Z,995.28
2016-04-13T10:18:21.292Z,995.27
2016-04-13T10:19:21.342Z,995.3
2016-04-13T10:20:21.345Z,995.33
2016-04-13T10:21:21.378Z,995.32
2016-04-13T10:22:21.413Z,995.33
2016-04-13T10:23:21.431Z,995.3
2016-04-13T10:24:21.465Z,995.26
2016-04-13T10:25:21.499Z,995.2
2016-04-13T10:26:21.517Z,995.18
2016-04-13T10:27:21.551Z,995.18
2016-04-13T10:28:21.569Z,995.2
2016-04-13T10:29:21.619Z,995.19
2016-04-13T10:30:21.629Z,995.17
2016-04-13T10:31:21.662Z,995.13
2016-04-13T10:32:21.681Z,995.13
2016-04-13T10:33:21.715Z,995.16
2016-04-13T10:34:21.733Z,995.16
2016-04-13T10:35:21.767Z,995.12
2016-04-13T10:36:21.801Z,995.16
2016-04-13T10:37:21.819Z,995.11
2016-04-13T10:38:21.851Z,995.12
2016-04-13T10:39:21.870Z,995.12
2016-04-13T10:40:21.904Z,995.13
2016-04-13T10:41:21.922Z,995.13
2016-04-13T10:42:21.956Z,995.12
2016-04-13T10:43:21.975Z,995.14
2016-04-13T10:44:22.009Z,995.13
2016-04-13T10:45:22.776Z,995.1
2016-04-13T10:46:22.060Z,995.14
2016-04-13T10:47:22.078Z,995.11
2016-04-13T10:48:22.113Z,995.08
2016-04-13T10:49:22.147Z,995.06
2016-04-13T10:50:22.180Z,995.08
2016-04-13T10:51:22.199Z,995.02
2016-04-13T10:52:22.232Z,995.04
2016-04-13T10:53:22.251Z,995.07
2016-04-13T10:54:22.300Z,995.04
2016-04-13T10:55:22.585Z,995.03
2016-04-13T10:56:26.744Z,995.04
2016-04-13T10:57:29.965Z,995.04
2016-04-13T10:58:33.483Z,995
2016-04-13T10:59:28.283Z,995.02
2016-04-13T11:00:42.082Z,995.02
2016-04-13T11:01:29.110Z,995
2016-04-13T11:02:28.408Z,994.99
2016-04-13T11:03:29.221Z,995.01
2016-04-13T11:04:43.453Z,994.99
2016-04-13T11:05:59.453Z,994.97
2016-04-13T11:07:16.184Z,994.95
2016-04-13T11:08:40.546Z,994.91
2016-04-13T11:09:56.361Z,994.91
2016-04-13T11:10:41.755Z,994.91
2016-04-13T11:11:53.859Z,994.91
2016-04-13T11:12:58.711Z,994.92
2016-04-13T11:13:55.110Z,994.89
2016-04-13T11:15:00.117Z,994.9
2016-04-13T11:16:06.376Z,994.84
2016-04-13T11:17:02.052Z,994.87
2016-04-13T11:18:13.827Z,994.85
2016-04-13T11:19:15.504Z,994.85
2016-04-13T11:20:17.025Z,994.79
2016-04-13T11:21:15.278Z,994.82
2016-04-13T11:22:27.109Z,994.82
2016-04-13T11:23:26.597Z,994.76
2016-04-13T11:24:26.617Z,994.75
2016-04-13T11:25:26.651Z,994.74
2016-04-13T11:26:26.920Z,994.74
2016-04-13T11:27:26.704Z,994.7
2016-04-13T11:28:26.738Z,994.68
2016-04-13T11:29:26.758Z,994.71
2016-04-13T11:30:26.792Z,994.74
2016-04-13T11:31:26.825Z,994.73
2016-04-13T11:32:26.843Z,994.71
2016-04-13T11:33:26.878Z,994.69
2016-04-13T11:34:26.911Z,994.69
2016-04-13T11:35:26.930Z,994.7
2016-04-13T11:36:26.964Z,994.69
2016-04-13T11:37:26.997Z,994.7
2016-04-13T11:38:27.016Z,994.72
2016-04-13T11:39:27.049Z,994.71
2016-04-13T11:40:27.068Z,994.71
2016-04-13T11:41:27.102Z,994.72
2016-04-13T11:42:27.135Z,994.7
2016-04-13T11:43:27.154Z,994.71
2016-04-13T11:44:27.188Z,994.74
2016-04-13T11:45:27.222Z,994.73
2016-04-13T11:46:27.241Z,994.73
2016-04-13T11:47:27.274Z,994.73
2016-04-13T11:48:27.293Z,994.71
2016-04-13T11:49:27.327Z,994.75
2016-04-13T11:50:27.361Z,994.73
2016-04-13T11:51:27.394Z,994.76
2016-04-13T11:52:27.428Z,994.76
2016-04-13T11:53:27.634Z,994.79
2016-04-13T11:54:27.465Z,994.75
2016-04-13T11:55:27.500Z,994.76
2016-04-13T11:56:27.533Z,994.74
2016-04-13T11:57:27.551Z,994.72
2016-04-13T11:58:27.585Z,994.73
2016-04-13T11:59:27.603Z,994.71
2016-04-13T12:00:27.638Z,994.67
2016-04-13T12:01:27.672Z,994.69
2016-04-13T12:02:27.689Z,994.73
2016-04-13T12:03:27.724Z,994.67
2016-04-13T12:04:27.742Z,994.7
2016-04-13T12:05:27.777Z,994.68
2016-04-13T12:06:27.810Z,994.66
2016-04-13T12:07:27.844Z,994.69
2016-04-13T12:08:27.863Z,994.68
2016-04-13T12:09:27.897Z,994.68
2016-04-13T12:10:27.916Z,994.67
2016-04-13T12:11:27.950Z,994.65
2016-04-13T12:12:27.967Z,994.67
2016-04-13T12:13:28.017Z,994.67
2016-04-13T12:14:28.036Z,994.69
2016-04-13T12:15:28.070Z,994.64
2016-04-13T12:16:28.088Z,994.65
2016-04-13T12:17:28.122Z,994.66
2016-04-13T12:18:28.155Z,994.67
2016-04-13T12:19:28.190Z,994.69
2016-04-13T12:20:28.208Z,994.65
2016-04-13T12:21:28.241Z,994.65
2016-04-13T12:22:28.276Z,994.67
2016-04-13T12:23:28.294Z,994.69
2016-04-13T12:24:28.328Z,994.66
2016-04-13T12:25:28.346Z,994.67
2016-04-13T12:26:28.380Z,994.68
2016-04-13T12:27:28.415Z,994.68
2016-04-13T12:28:28.432Z,994.7
2016-04-13T12:29:28.467Z,994.67
2016-04-13T12:30:28.501Z,994.72
2016-04-13T12:31:28.534Z,994.72
2016-04-13T12:32:28.554Z,994.71
2016-04-13T12:33:28.571Z,994.72